createdAt,value
2019-02-15T00:00:42.471Z,124.87
2019-02-15T00:03:12.645Z,126.63
2019-02-15T00:05:42.854Z,163.57
2019-02-15T00:08:13.004Z,144.23
2019-02-15T00:10:43.170Z,119.87
2019-02-15T00:13:13.963Z,122.33
2019-02-15T00:15:44.602Z,103.50
2019-02-15T00:18:22.705Z,117.90
2019-02-15T00:21:00.630Z,101.47
2019-02-15T00:23:30.693Z,107.37
2019-02-15T00:26:00.829Z,99.97
2019-02-15T00:28:31.051Z,102.00
2019-02-15T00:31:01.173Z,80.73
2019-02-15T00:33:31.529Z,85.13
2019-02-15T00:36:01.783Z,79.57
2019-02-15T00:38:32.123Z,82.07
2019-02-15T00:41:02.234Z,69.90
2019-02-15T00:43:32.454Z,70.87
2019-02-15T00:46:33.474Z,66.90
2019-02-15T00:49:05.274Z,67.23
2019-02-15T00:51:54.434Z,71.27
2019-02-15T00:54:41.934Z,62.47
2019-02-15T00:57:41.064Z,75.50
2019-02-15T01:00:28.989Z,80.50
2019-02-15T01:03:19.526Z,88.13
2019-02-15T01:06:14.398Z,78.57
2019-02-15T01:08:54.569Z,82.53
2019-02-15T01:11:31.242Z,80.23
2019-02-15T01:14:01.458Z,73.90
2019-02-15T01:16:31.533Z,90.63
2019-02-15T01:19:01.639Z,90.50
2019-02-15T01:21:31.778Z,96.60
2019-02-15T01:24:01.870Z,96.13
2019-02-15T01:26:45.990Z,93.93
2019-02-15T01:29:50.480Z,102.03
2019-02-15T01:32:48.697Z,105.03
2019-02-15T01:35:28.482Z,112.23
2019-02-15T01:38:22.202Z,114.53
2019-02-15T01:40:57.046Z,117.73
2019-02-15T01:43:49.299Z,128.07
2019-02-15T01:46:32.403Z,138.20
2019-02-15T01:49:02.534Z,127.53
2019-02-15T01:51:32.609Z,128.67
2019-02-15T01:54:03.160Z,130.27
2019-02-15T01:56:33.444Z,129.23
2019-02-15T01:59:03.592Z,139.00
2019-02-15T02:01:33.757Z,136.27
2019-02-15T02:04:04.099Z,145.47
2019-02-15T02:06:34.165Z,156.67
2019-02-15T02:09:05.070Z,160.57
2019-02-15T02:11:35.666Z,168.73
2019-02-15T02:14:05.809Z,156.43
2019-02-15T02:16:35.927Z,150.53
2019-02-15T02:19:06.646Z,145.70
2019-02-15T02:21:36.903Z,161.97
2019-02-15T02:24:07.097Z,145.07
2019-02-15T02:26:37.229Z,145.40
2019-02-15T02:29:08.000Z,169.80
2019-02-15T02:31:38.170Z,158.10
2019-02-15T02:34:08.407Z,166.07
2019-02-15T02:37:09.611Z,161.97
2019-02-15T02:39:39.781Z,159.23
2019-02-15T02:42:10.066Z,152.57
2019-02-15T02:44:40.229Z,146.60
2019-02-15T02:47:10.694Z,138.57
2019-02-15T02:49:40.955Z,152.33
2019-02-15T02:52:11.123Z,146.30
2019-02-15T02:54:41.317Z,170.73
2019-02-15T02:57:11.514Z,158.67
2019-02-15T02:59:41.773Z,158.90
2019-02-15T03:02:12.094Z,169.40
2019-02-15T03:04:43.106Z,161.47
2019-02-15T03:07:13.361Z,147.57
2019-02-15T03:09:43.751Z,149.17
2019-02-15T03:12:13.975Z,156.50
2019-02-15T03:14:44.381Z,157.37
2019-02-15T03:17:14.653Z,167.03
2019-02-15T03:19:44.834Z,160.93
2019-02-15T03:22:15.286Z,156.70
2019-02-15T03:24:45.834Z,166.33
2019-02-15T03:27:15.976Z,163.70
2019-02-15T03:29:46.129Z,152.13
2019-02-15T03:32:16.251Z,151.87
2019-02-15T03:34:46.565Z,159.70
2019-02-15T03:37:44.827Z,156.07
2019-02-15T03:40:30.207Z,148.60
2019-02-15T03:43:00.322Z,167.27
2019-02-15T03:45:30.462Z,159.43
2019-02-15T03:48:00.798Z,160.17
2019-02-15T03:50:30.986Z,163.90
2019-02-15T03:53:01.204Z,161.70
2019-02-15T03:55:31.567Z,153.90
2019-02-15T03:58:01.798Z,160.40
2019-02-15T04:00:32.022Z,166.93
2019-02-15T04:03:02.164Z,161.60
2019-02-15T04:05:32.276Z,171.17
2019-02-15T04:08:02.386Z,170.30
2019-02-15T04:10:32.635Z,171.80
2019-02-15T04:13:02.855Z,169.10
2019-02-15T04:15:33.005Z,166.03
2019-02-15T04:18:03.381Z,163.93
2019-02-15T04:20:33.519Z,165.83
2019-02-15T04:23:03.769Z,158.07
2019-02-15T04:25:33.910Z,174.20
2019-02-15T04:28:04.178Z,160.93
2019-02-15T04:30:34.414Z,168.27
2019-02-15T04:33:04.610Z,183.70
2019-02-15T04:35:34.821Z,182.07
2019-02-15T04:38:05.958Z,171.13
2019-02-15T04:40:36.019Z,177.60
2019-02-15T04:43:06.463Z,168.73
2019-02-15T04:45:36.626Z,158.57
2019-02-15T04:48:06.715Z,170.80
2019-02-15T04:50:36.763Z,166.73
2019-02-15T04:53:07.462Z,183.43
2019-02-15T04:55:37.620Z,180.87
2019-02-15T04:58:07.886Z,167.03
2019-02-15T05:00:38.149Z,181.50
2019-02-15T05:03:08.303Z,178.37
2019-02-15T05:05:38.454Z,174.93
2019-02-15T05:08:08.517Z,169.43
2019-02-15T05:10:38.580Z,171.00
2019-02-15T05:13:08.787Z,180.27
2019-02-15T05:15:38.927Z,189.07
2019-02-15T05:18:09.274Z,198.77
2019-02-15T05:20:39.389Z,217.27
2019-02-15T05:23:09.526Z,221.93
2019-02-15T05:25:39.893Z,192.50
2019-02-15T05:28:10.132Z,198.07
2019-02-15T05:30:40.372Z,191.63
2019-02-15T05:33:10.539Z,183.40
2019-02-15T05:35:40.805Z,180.47
2019-02-15T05:38:10.973Z,183.60
2019-02-15T05:40:41.115Z,181.70
2019-02-15T05:43:11.186Z,174.93
2019-02-15T05:45:41.229Z,187.80
2019-02-15T05:48:11.412Z,173.67
2019-02-15T05:50:41.530Z,195.37
2019-02-15T05:53:11.734Z,193.80
2019-02-15T05:55:41.858Z,188.37
2019-02-15T05:58:11.995Z,199.40
2019-02-15T06:00:42.255Z,196.00
2019-02-15T06:03:13.782Z,193.13
2019-02-15T06:05:44.215Z,187.23
2019-02-15T06:08:14.647Z,205.27
2019-02-15T06:10:44.855Z,205.10
2019-02-15T06:13:15.111Z,190.13
2019-02-15T06:15:45.314Z,183.07
2019-02-15T06:18:15.642Z,197.17
2019-02-15T06:20:45.730Z,189.90
2019-02-15T06:23:15.914Z,206.00
2019-02-15T06:25:46.084Z,182.73
2019-02-15T06:28:16.325Z,187.87
2019-02-15T06:30:49.631Z,201.20
2019-02-15T06:33:19.767Z,193.47
2019-02-15T06:35:50.048Z,189.77
2019-02-15T06:38:20.235Z,195.07
2019-02-15T06:40:50.377Z,192.23
2019-02-15T06:43:20.582Z,179.07
2019-02-15T06:45:50.642Z,175.23
2019-02-15T06:48:20.839Z,180.73
2019-02-15T06:50:51.087Z,196.67
2019-02-15T06:53:21.879Z,184.60
2019-02-15T06:55:59.641Z,187.40
2019-02-15T06:58:45.256Z,186.87
2019-02-15T07:01:21.387Z,182.37
2019-02-15T07:04:00.537Z,186.93
2019-02-15T07:06:30.682Z,165.93
2019-02-15T07:09:01.057Z,168.63
2019-02-15T07:11:32.754Z,169.83
2019-02-15T07:14:02.865Z,162.37
2019-02-15T07:16:32.985Z,162.83
2019-02-15T07:19:04.279Z,169.17
2019-02-15T07:21:34.411Z,159.30
2019-02-15T07:24:04.754Z,179.07
2019-02-15T07:26:34.838Z,163.30
2019-02-15T07:29:04.978Z,159.53
2019-02-15T07:31:43.107Z,147.73
2019-02-15T07:34:17.089Z,147.63
2019-02-15T07:36:51.983Z,155.17
2019-02-15T07:39:23.931Z,193.87
2019-02-15T07:41:59.650Z,167.10
2019-02-15T07:44:32.742Z,140.50
2019-02-15T07:47:03.258Z,139.37
2019-02-15T07:49:33.419Z,149.40
2019-02-15T07:52:08.263Z,137.37
2019-02-15T07:54:41.693Z,116.17
2019-02-15T07:57:12.266Z,125.50
2019-02-15T07:59:42.549Z,104.07
2019-02-15T08:02:17.043Z,110.37
2019-02-15T08:04:51.848Z,111.13
2019-02-15T08:07:22.123Z,100.60
2019-02-15T08:09:52.185Z,96.97
2019-02-15T08:12:22.730Z,101.60
2019-02-15T08:14:54.582Z,101.00
2019-02-15T08:17:24.770Z,99.60
2019-02-15T08:19:55.071Z,112.73
2019-02-15T08:22:25.354Z,98.57
2019-02-15T08:24:57.951Z,103.23
2019-02-15T08:27:34.254Z,94.17
2019-02-15T08:30:04.426Z,96.07
2019-02-15T08:32:37.505Z,90.97
2019-02-15T08:35:08.218Z,91.43
2019-02-15T08:37:40.145Z,92.13
2019-02-15T08:40:10.743Z,85.23
2019-02-15T08:42:40.913Z,81.93
2019-02-15T08:45:12.367Z,87.37
2019-02-15T08:47:42.586Z,81.93
2019-02-15T08:50:12.664Z,80.00
2019-02-15T08:52:42.726Z,76.13
2019-02-15T08:55:13.137Z,76.17
2019-02-15T08:57:43.347Z,72.73
2019-02-15T09:00:13.475Z,76.03
2019-02-15T09:02:43.740Z,73.40
2019-02-15T09:05:13.860Z,69.37
2019-02-15T09:07:44.050Z,76.60
2019-02-15T09:10:14.429Z,65.80
2019-02-15T09:12:44.586Z,70.37
2019-02-15T09:15:17.425Z,71.33
2019-02-15T09:17:47.629Z,66.13
2019-02-15T09:20:17.769Z,65.57
2019-02-15T09:22:48.365Z,65.87
2019-02-15T09:25:19.550Z,77.77
2019-02-15T09:28:08.680Z,73.07
2019-02-15T09:30:38.833Z,66.73
2019-02-15T09:33:09.025Z,70.93
2019-02-15T09:35:39.190Z,71.20
2019-02-15T09:38:09.681Z,63.07
2019-02-15T09:40:39.853Z,70.23
2019-02-15T09:43:10.098Z,66.53
2019-02-15T09:45:40.166Z,70.97
2019-02-15T09:48:10.502Z,66.10
2019-02-15T09:50:40.626Z,66.30
2019-02-15T09:53:10.711Z,66.30
2019-02-15T09:55:40.987Z,66.10
2019-02-15T09:58:11.237Z,74.70
2019-02-15T10:00:41.357Z,75.90
2019-02-15T10:03:12.621Z,73.77
2019-02-15T10:05:43.732Z,69.87
2019-02-15T10:08:14.121Z,76.00
2019-02-15T10:10:44.345Z,73.23
2019-02-15T10:13:15.603Z,71.97
2019-02-15T10:15:45.771Z,80.07
2019-02-15T10:18:15.916Z,72.67
2019-02-15T10:20:46.038Z,68.00
2019-02-15T10:23:16.219Z,72.43
2019-02-15T10:25:47.390Z,69.27
2019-02-15T10:28:17.473Z,67.73
2019-02-15T10:30:47.586Z,75.13
2019-02-15T10:33:17.834Z,74.87
2019-02-15T10:35:48.078Z,79.13
2019-02-15T10:38:18.246Z,80.03
2019-02-15T10:40:48.385Z,75.03
2019-02-15T10:43:18.759Z,80.70
2019-02-15T10:45:48.938Z,74.20
2019-02-15T10:48:19.022Z,72.80
2019-02-15T10:50:49.158Z,73.00
2019-02-15T10:53:19.378Z,76.67
2019-02-15T10:55:49.444Z,69.40
2019-02-15T10:58:19.598Z,71.10
2019-02-15T11:00:49.765Z,69.33
2019-02-15T11:03:20.014Z,74.17
2019-02-15T11:05:50.067Z,65.83
2019-02-15T11:08:20.189Z,69.27
2019-02-15T11:10:50.666Z,75.73
2019-02-15T11:13:20.810Z,68.70
2019-02-15T11:15:51.074Z,78.20
2019-02-15T11:18:21.167Z,68.13
2019-02-15T11:20:51.309Z,77.53
2019-02-15T11:23:21.495Z,69.47
2019-02-15T11:25:51.641Z,63.37
2019-02-15T11:28:21.890Z,70.17
2019-02-15T11:30:52.090Z,72.70
2019-02-15T11:33:22.238Z,72.40
2019-02-15T11:35:52.301Z,72.30
2019-02-15T11:38:22.520Z,70.73
2019-02-15T11:40:52.686Z,73.80
2019-02-15T11:43:22.909Z,74.50
2019-02-15T11:45:53.103Z,73.30
2019-02-15T11:48:23.321Z,74.53
2019-02-15T11:50:54.840Z,77.40
2019-02-15T11:53:25.002Z,81.10
2019-02-15T11:55:55.221Z,82.40
2019-02-15T11:58:25.411Z,78.73
2019-02-15T12:00:55.757Z,77.90
2019-02-15T12:03:25.877Z,83.30
2019-02-15T12:05:56.109Z,81.60
2019-02-15T12:08:26.352Z,86.47
2019-02-15T12:10:56.398Z,78.93
2019-02-15T12:13:26.566Z,84.37
2019-02-15T12:15:56.670Z,79.73
2019-02-15T12:18:26.781Z,81.93
2019-02-15T12:20:57.057Z,82.73
2019-02-15T12:23:28.596Z,81.07
2019-02-15T12:25:59.583Z,82.33
2019-02-15T12:28:30.676Z,80.67
2019-02-15T12:31:01.102Z,75.97
2019-02-15T12:33:31.521Z,82.47
2019-02-15T12:36:01.774Z,83.83
2019-02-15T12:38:32.166Z,83.83
2019-02-15T12:41:02.344Z,78.03
2019-02-15T12:43:32.883Z,92.30
2019-02-15T12:46:03.042Z,100.00
2019-02-15T12:48:33.322Z,98.83
2019-02-15T12:51:03.477Z,104.60
2019-02-15T12:53:33.622Z,97.40
2019-02-15T12:56:03.778Z,102.00
2019-02-15T12:58:36.986Z,109.20
2019-02-15T13:01:07.241Z,111.03
2019-02-15T13:03:37.390Z,106.37
2019-02-15T13:06:07.668Z,115.70
2019-02-15T13:08:37.809Z,113.40
2019-02-15T13:11:08.003Z,116.97
2019-02-15T13:13:38.257Z,112.17
2019-02-15T13:16:08.311Z,117.67
2019-02-15T13:18:38.484Z,118.57
2019-02-15T13:21:08.702Z,123.93
2019-02-15T13:23:38.868Z,120.23
2019-02-15T13:26:09.116Z,130.43
2019-02-15T13:28:39.321Z,130.60
2019-02-15T13:31:09.422Z,129.30
2019-02-15T13:33:39.624Z,114.63
2019-02-15T13:36:09.737Z,129.40
2019-02-15T13:38:39.988Z,132.47
2019-02-15T13:41:10.114Z,123.17
2019-02-15T13:43:40.303Z,124.20
2019-02-15T13:46:10.833Z,124.77
2019-02-15T13:48:41.090Z,129.87
2019-02-15T13:51:11.271Z,124.17
2019-02-15T13:53:41.502Z,122.87
2019-02-15T13:56:11.693Z,121.47
2019-02-15T13:58:41.916Z,135.67
2019-02-15T14:01:12.155Z,152.03
2019-02-15T14:03:42.321Z,132.07
2019-02-15T14:06:12.547Z,123.73
2019-02-15T14:08:42.589Z,138.13
2019-02-15T14:11:12.886Z,155.50
2019-02-15T14:13:43.031Z,141.43
2019-02-15T14:16:13.183Z,131.97
2019-02-15T14:18:43.386Z,132.70
2019-02-15T14:21:13.518Z,125.43
2019-02-15T14:23:43.646Z,125.67
2019-02-15T14:26:13.716Z,130.93
2019-02-15T14:28:45.171Z,130.27
2019-02-15T14:31:15.385Z,135.17
2019-02-15T14:33:45.559Z,130.37
2019-02-15T14:36:15.791Z,130.13
2019-02-15T14:38:51.921Z,131.37
2019-02-15T14:41:22.068Z,130.40
2019-02-15T14:43:52.344Z,132.63
2019-02-15T14:46:23.010Z,141.53
2019-02-15T14:48:54.914Z,135.67
2019-02-15T14:51:25.206Z,136.07
2019-02-15T14:53:55.281Z,134.13
2019-02-15T14:56:25.459Z,142.50
2019-02-15T14:58:55.610Z,140.93
2019-02-15T15:01:25.982Z,137.23
2019-02-15T15:03:56.225Z,134.03
2019-02-15T15:06:27.479Z,138.63
2019-02-15T15:08:57.619Z,138.80
2019-02-15T15:11:27.873Z,146.87
2019-02-15T15:13:57.925Z,137.90
2019-02-15T15:16:28.149Z,143.60
2019-02-15T15:18:58.522Z,140.30
2019-02-15T15:21:28.797Z,146.37
2019-02-15T15:23:59.066Z,144.37
2019-02-15T15:26:29.248Z,172.73
2019-02-15T15:28:59.310Z,175.77
2019-02-15T15:31:29.518Z,170.00
2019-02-15T15:33:59.863Z,165.40
2019-02-15T15:36:29.958Z,171.83
2019-02-15T15:39:00.189Z,176.07
2019-02-15T15:41:30.314Z,184.80
2019-02-15T15:44:00.562Z,174.17
2019-02-15T15:46:30.630Z,182.43
2019-02-15T15:49:00.730Z,189.37
2019-02-15T15:51:31.147Z,179.43
2019-02-15T15:54:01.354Z,191.63
2019-02-15T15:56:31.550Z,194.47
2019-02-15T15:59:01.810Z,177.97
2019-02-15T16:01:31.949Z,185.80
2019-02-15T16:04:02.214Z,179.90
2019-02-15T16:06:32.396Z,179.03
2019-02-15T16:09:03.374Z,161.90
2019-02-15T16:11:35.230Z,151.07
2019-02-15T16:14:05.466Z,144.77
2019-02-15T16:16:36.425Z,137.47
2019-02-15T16:19:06.701Z,138.60
2019-02-15T16:21:36.868Z,131.57
2019-02-15T16:24:12.595Z,125.27
2019-02-15T16:26:39.007Z,137.37
2019-02-15T16:29:09.184Z,141.70
2019-02-15T16:31:39.459Z,139.00
2019-02-15T16:34:09.594Z,134.57
2019-02-15T16:36:39.914Z,159.87
2019-02-15T16:39:10.086Z,136.20
2019-02-15T16:41:40.324Z,136.73
2019-02-15T16:44:10.627Z,143.23
2019-02-15T16:46:40.774Z,139.43
2019-02-15T16:49:10.851Z,140.13
2019-02-15T16:51:40.921Z,149.80
2019-02-15T16:54:11.250Z,133.60
2019-02-15T16:56:41.469Z,143.33
2019-02-15T16:59:11.680Z,139.57
2019-02-15T17:01:41.933Z,137.07
2019-02-15T17:04:12.120Z,155.90
2019-02-15T17:06:42.398Z,134.67
2019-02-15T17:09:18.590Z,136.27
2019-02-15T17:11:48.740Z,144.40
2019-02-15T17:14:19.045Z,149.07
2019-02-15T17:16:49.437Z,156.60
2019-02-15T17:19:19.749Z,152.03
2019-02-15T17:21:50.034Z,155.63
2019-02-15T17:24:20.361Z,159.57
2019-02-15T17:26:50.522Z,160.70
2019-02-15T17:29:20.855Z,152.93
2019-02-15T17:31:50.973Z,164.00
2019-02-15T17:34:21.239Z,152.43
2019-02-15T17:36:51.484Z,159.83
2019-02-15T17:39:21.746Z,156.73
2019-02-15T17:41:55.047Z,157.20
2019-02-15T17:44:25.337Z,145.37
2019-02-15T17:46:55.522Z,152.40
2019-02-15T17:49:26.119Z,169.67
2019-02-15T17:51:56.262Z,153.53
2019-02-15T17:54:26.534Z,155.50
2019-02-15T17:56:56.645Z,151.73
2019-02-15T17:59:26.823Z,162.83
2019-02-15T18:01:57.025Z,162.33
2019-02-15T18:04:27.237Z,156.07
2019-02-15T18:06:57.670Z,154.60
2019-02-15T18:09:27.877Z,154.10
2019-02-15T18:11:58.142Z,168.03
2019-02-15T18:14:28.237Z,162.33
2019-02-15T18:16:59.144Z,149.47
2019-02-15T18:19:29.458Z,164.60
2019-02-15T18:21:59.641Z,170.23
2019-02-15T18:24:29.829Z,168.83
2019-02-15T18:26:59.955Z,168.73
2019-02-15T18:29:30.286Z,156.50
2019-02-15T18:32:00.436Z,165.70
2019-02-15T18:34:30.723Z,152.97
2019-02-15T18:37:00.869Z,160.20
2019-02-15T18:39:31.066Z,155.47
2019-02-15T18:42:01.129Z,163.63
2019-02-15T18:44:31.486Z,166.47
2019-02-15T18:47:01.725Z,169.13
2019-02-15T18:49:32.051Z,157.87
2019-02-15T18:52:02.192Z,150.87
2019-02-15T18:54:32.406Z,160.30
2019-02-15T18:57:02.601Z,171.30
2019-02-15T18:59:32.952Z,188.37
2019-02-15T19:02:03.254Z,202.63
2019-02-15T19:04:34.385Z,178.03
2019-02-15T19:07:10.174Z,223.07
2019-02-15T19:09:40.757Z,204.73
2019-02-15T19:12:10.950Z,183.17
2019-02-15T19:14:41.227Z,166.40
2019-02-15T19:17:11.631Z,170.30
2019-02-15T19:19:41.874Z,172.00
2019-02-15T19:22:12.051Z,178.63
2019-02-15T19:24:42.227Z,173.40
2019-02-15T19:27:12.366Z,178.33
2019-02-15T19:29:42.540Z,182.40
2019-02-15T19:32:12.849Z,180.00
2019-02-15T19:34:43.158Z,165.60
2019-02-15T19:37:14.115Z,174.87
2019-02-15T19:39:44.319Z,170.63
2019-02-15T19:42:18.008Z,180.37
2019-02-15T19:44:48.277Z,171.03
2019-02-15T19:47:18.571Z,165.00
2019-02-15T19:49:48.737Z,176.47
2019-02-15T19:52:18.801Z,174.30
2019-02-15T19:54:49.038Z,166.80
2019-02-15T19:57:19.347Z,165.20
2019-02-15T19:59:53.765Z,170.73
2019-02-15T20:02:21.819Z,180.60
2019-02-15T20:04:51.986Z,180.20
2019-02-15T20:07:22.145Z,181.30
2019-02-15T20:09:52.427Z,279.00
2019-02-15T20:12:41.733Z,249.03
2019-02-15T20:15:14.103Z,194.03
2019-02-15T20:17:44.514Z,190.17
2019-02-15T20:20:15.791Z,171.90
2019-02-15T20:22:46.088Z,170.03
2019-02-15T20:25:16.386Z,188.57
2019-02-15T20:27:47.715Z,185.53
2019-02-15T20:30:18.908Z,176.00
2019-02-15T20:32:51.895Z,176.90
2019-02-15T20:35:22.165Z,169.07
2019-02-15T20:37:52.278Z,156.00
2019-02-15T20:40:22.724Z,166.60
2019-02-15T20:42:52.946Z,169.73
2019-02-15T20:45:23.285Z,178.70
2019-02-15T20:47:54.015Z,193.53
2019-02-15T20:50:24.417Z,183.80
2019-02-15T20:52:54.933Z,185.13
2019-02-15T20:55:26.521Z,187.43
2019-02-15T20:57:56.963Z,185.63
2019-02-15T21:00:27.241Z,176.73
2019-02-15T21:02:57.571Z,182.67
2019-02-15T21:05:27.818Z,185.57
2019-02-15T21:07:58.174Z,199.67
2019-02-15T21:10:28.330Z,195.07
2019-02-15T21:12:58.566Z,197.27
2019-02-15T21:15:28.702Z,183.10
2019-02-15T21:17:58.753Z,194.97
2019-02-15T21:20:29.067Z,200.93
2019-02-15T21:22:59.225Z,203.47
2019-02-15T21:25:29.450Z,203.47
2019-02-15T21:27:59.566Z,179.73
2019-02-15T21:30:29.738Z,181.47
2019-02-15T21:33:03.314Z,183.63
2019-02-15T21:35:33.610Z,187.53
2019-02-15T21:38:03.802Z,174.03
2019-02-15T21:40:34.122Z,167.73
2019-02-15T21:43:04.262Z,163.57
2019-02-15T21:45:34.460Z,170.63
2019-02-15T21:48:04.777Z,173.77
2019-02-15T21:50:35.002Z,187.60
2019-02-15T21:53:05.301Z,175.53
2019-02-15T21:55:35.458Z,186.90
2019-02-15T21:58:05.592Z,170.83
2019-02-15T22:00:35.883Z,185.63
2019-02-15T22:03:06.143Z,181.03
2019-02-15T22:05:36.406Z,162.90
2019-02-15T22:08:06.549Z,165.03
2019-02-15T22:10:36.762Z,168.97
2019-02-15T22:13:07.073Z,176.63
2019-02-15T22:15:37.275Z,170.30
2019-02-15T22:18:07.436Z,172.10
2019-02-15T22:20:37.670Z,156.50
2019-02-15T22:23:07.881Z,170.43
2019-02-15T22:25:38.154Z,148.80
2019-02-15T22:28:08.309Z,158.50
2019-02-15T22:30:38.429Z,152.03
2019-02-15T22:33:08.559Z,173.13
2019-02-15T22:35:38.827Z,156.47
2019-02-15T22:38:09.125Z,172.47
2019-02-15T22:40:42.258Z,183.20
2019-02-15T22:43:15.439Z,182.23
2019-02-15T22:45:45.547Z,169.73
2019-02-15T22:48:16.010Z,184.30
2019-02-15T22:50:46.232Z,167.60
2019-02-15T22:53:16.541Z,193.43
2019-02-15T22:55:46.789Z,170.53
2019-02-15T22:58:16.953Z,171.50
2019-02-15T23:00:58.505Z,175.70
2019-02-15T23:03:28.973Z,172.53
2019-02-15T23:05:59.142Z,165.60
2019-02-15T23:08:29.407Z,151.40
2019-02-15T23:10:59.599Z,174.70
2019-02-15T23:13:29.780Z,155.13
2019-02-15T23:16:00.974Z,145.77
2019-02-15T23:18:31.245Z,143.93
2019-02-15T23:21:01.527Z,134.17
2019-02-15T23:23:31.661Z,126.10
2019-02-15T23:26:01.858Z,134.43
2019-02-15T23:28:32.330Z,136.13
2019-02-15T23:31:02.418Z,117.17
2019-02-15T23:33:32.660Z,126.27
2019-02-15T23:36:02.839Z,125.67
2019-02-15T23:38:33.021Z,131.13
2019-02-15T23:41:03.296Z,137.07
2019-02-15T23:43:33.450Z,135.93
2019-02-15T23:46:03.710Z,132.00
2019-02-15T23:48:35.685Z,140.23
2019-02-15T23:51:05.893Z,136.80
2019-02-15T23:53:36.094Z,135.77
2019-02-15T23:56:06.250Z,156.83
2019-02-15T23:58:36.364Z,154.33
